KLM420 OMDB-EHAM
Flight info
| Callsign | KLM420 |
|---|---|
| Flight time | N/A |
| Altitude | 36000 |
| Route | RIDAP M557 TUMAK L602 GADSI M860 SEPTU DCT VUSEB M860 NINVA UM860 ODALI UL852 APVAS/N0481F380 UL852 NEGEM DCT MAXOV DCT BADOR DCT PITOK DCT MAKAL DCT LALUK DCT NORKU |
| Aircraft | B77W/H-SDE1E2E3FGHIJ2J3J4J5M1RWXY/LB1D1 |
Departure
| Time | 2026-05-08 07:33 |
|---|---|
| Airport | Dubai International Airport (OMDB) |
Arrival
| Time | N/A |
|---|---|
| Airport | Amsterdam Airport Schiphol (EHAM) |
| Time | Latitude | Longitude | Altitude | Speed | Heading |
|---|---|---|---|---|---|
| 2026-05-08 06:30 | 25.24879 | 55.36295 | 34 ft | 0 kts | 211° |
| 2026-05-08 07:16 | 25.24881 | 55.36297 | 34 ft | 2 kts | 211° |
| 2026-05-08 07:16 | 25.24894 | 55.36305 | 34 ft | 2 kts | 211° |
| 2026-05-08 07:16 | 25.24907 | 55.36313 | 34 ft | 2 kts | 211° |
| 2026-05-08 07:17 | 25.24917 | 55.36320 | 34 ft | 0 kts | 211° |
| 2026-05-08 07:17 | 25.24929 | 55.36327 | 34 ft | 2 kts | 200° |
| 2026-05-08 07:17 | 25.24943 | 55.36330 | 34 ft | 2 kts | 180° |
| 2026-05-08 07:17 | 25.24958 | 55.36328 | 34 ft | 2 kts | 163° |
| 2026-05-08 07:18 | 25.24972 | 55.36322 | 34 ft | 2 kts | 147° |
| 2026-05-08 07:18 | 25.24983 | 55.36312 | 34 ft | 2 kts | 131° |
| 2026-05-08 07:18 | 25.24989 | 55.36303 | 34 ft | 1 kts | 121° |
| 2026-05-08 07:18 | 25.24990 | 55.36303 | 34 ft | 0 kts | 121° |
| 2026-05-08 07:22 | 25.24989 | 55.36303 | 33 ft | 0 kts | 121° |
| 2026-05-08 07:22 | 25.24983 | 55.36315 | 33 ft | 4 kts | 120° |
| 2026-05-08 07:22 | 25.24966 | 55.36345 | 33 ft | 4 kts | 122° |
| 2026-05-08 07:23 | 25.24924 | 55.36418 | 34 ft | 15 kts | 122° |
| 2026-05-08 07:23 | 25.24875 | 55.36504 | 38 ft | 10 kts | 121° |
| 2026-05-08 07:23 | 25.24844 | 55.36560 | 41 ft | 9 kts | 121° |
| 2026-05-08 07:23 | 25.24803 | 55.36657 | 47 ft | 15 kts | 110° |
| 2026-05-08 07:24 | 25.24776 | 55.36767 | 46 ft | 15 kts | 103° |
| 2026-05-08 07:24 | 25.24748 | 55.36853 | 44 ft | 3 kts | 116° |
| 2026-05-08 07:24 | 25.24734 | 55.36909 | 48 ft | 5 kts | 76° |
| 2026-05-08 07:24 | 25.24761 | 55.36954 | 51 ft | 11 kts | 62° |
| 2026-05-08 07:25 | 25.24763 | 55.37009 | 51 ft | 2 kts | 115° |
| 2026-05-08 07:25 | 25.24737 | 55.37062 | 51 ft | 9 kts | 121° |
| 2026-05-08 07:25 | 25.24677 | 55.37170 | 52 ft | 7 kts | 123° |
| 2026-05-08 07:26 | 25.24636 | 55.37245 | 54 ft | 14 kts | 121° |
| 2026-05-08 07:26 | 25.24574 | 55.37355 | 56 ft | 16 kts | 121° |
| 2026-05-08 07:26 | 25.24515 | 55.37461 | 56 ft | 15 kts | 121° |
| 2026-05-08 07:26 | 25.24458 | 55.37564 | 54 ft | 15 kts | 121° |
| 2026-05-08 07:27 | 25.24401 | 55.37666 | 52 ft | 15 kts | 121° |
| 2026-05-08 07:27 | 25.24352 | 55.37754 | 55 ft | 11 kts | 121° |
| 2026-05-08 07:27 | 25.24344 | 55.37819 | 58 ft | 7 kts | 60° |
| 2026-05-08 07:27 | 25.24417 | 55.37881 | 58 ft | 14 kts | 35° |
| 2026-05-08 07:28 | 25.24496 | 55.37940 | 58 ft | 12 kts | 34° |
| 2026-05-08 07:28 | 25.24569 | 55.37993 | 58 ft | 11 kts | 33° |
| 2026-05-08 07:28 | 25.24631 | 55.38040 | 58 ft | 10 kts | 33° |
| 2026-05-08 07:28 | 25.24637 | 55.38044 | 58 ft | 0 kts | 33° |
| 2026-05-08 07:30 | 25.24649 | 55.38052 | 58 ft | 7 kts | 32° |
| 2026-05-08 07:30 | 25.24715 | 55.38097 | 58 ft | 11 kts | 27° |
| 2026-05-08 07:31 | 25.24778 | 55.38075 | 58 ft | 9 kts | 310° |
| 2026-05-08 07:31 | 25.24799 | 55.38042 | 58 ft | 0 kts | 301° |
| 2026-05-08 07:32 | 25.24799 | 55.38041 | 58 ft | 0 kts | 301° |
| 2026-05-08 07:32 | 25.24836 | 55.37976 | 58 ft | 38 kts | 301° |
| 2026-05-08 07:32 | 25.25129 | 55.37451 | 53 ft | 120 kts | 301° |
| 2026-05-08 07:33 | 25.25699 | 55.36421 | 132 ft | 183 kts | 300° |
| 2026-05-08 07:33 | 25.26402 | 55.35148 | 819 ft | 199 kts | 299° |
| 2026-05-08 07:33 | 25.27147 | 55.33799 | 1656 ft | 220 kts | 300° |
| 2026-05-08 07:33 | 25.27994 | 55.32274 | 2452 ft | 241 kts | 300° |
| 2026-05-08 07:34 | 25.28872 | 55.30695 | 3185 ft | 241 kts | 301° |
| 2026-05-08 07:34 | 25.29626 | 55.29341 | 3795 ft | 248 kts | 301° |
| 2026-05-08 07:34 | 25.30612 | 55.27748 | 4468 ft | 255 kts | 306° |
| 2026-05-08 07:34 | 25.31656 | 55.26148 | 4973 ft | 257 kts | 306° |
| 2026-05-08 07:35 | 25.32729 | 55.24479 | 5491 ft | 277 kts | 306° |
| 2026-05-08 07:35 | 25.33885 | 55.22665 | 6001 ft | 298 kts | 306° |
| 2026-05-08 07:35 | 25.35107 | 55.20676 | 6502 ft | 319 kts | 299° |
| 2026-05-08 07:35 | 25.35788 | 55.18306 | 6994 ft | 335 kts | 276° |
| 2026-05-08 07:36 | 25.35811 | 55.15689 | 7474 ft | 341 kts | 268° |
| 2026-05-08 07:36 | 25.35688 | 55.13056 | 7992 ft | 343 kts | 268° |
| 2026-05-08 07:36 | 25.35566 | 55.10400 | 8550 ft | 346 kts | 268° |
| 2026-05-08 07:36 | 25.35459 | 55.07752 | 9051 ft | 348 kts | 268° |
| 2026-05-08 07:37 | 25.35357 | 55.05046 | 9567 ft | 351 kts | 268° |
| 2026-05-08 07:37 | 25.35258 | 55.02348 | 10057 ft | 356 kts | 267° |
| 2026-05-08 07:37 | 25.35160 | 54.99699 | 10520 ft | 360 kts | 267° |
| 2026-05-08 07:37 | 25.35059 | 54.96935 | 10981 ft | 364 kts | 266° |
| 2026-05-08 07:38 | 25.34951 | 54.94022 | 11499 ft | 368 kts | 266° |
| 2026-05-08 07:38 | 25.35030 | 54.91191 | 11981 ft | 373 kts | 275° |
| 2026-05-08 07:38 | 25.35542 | 54.88350 | 12464 ft | 378 kts | 284° |
| 2026-05-08 07:38 | 25.36330 | 54.85542 | 12953 ft | 382 kts | 286° |
| 2026-05-08 07:39 | 25.37152 | 54.82696 | 13445 ft | 386 kts | 285° |
| 2026-05-08 07:39 | 25.37963 | 54.79879 | 13924 ft | 388 kts | 285° |
| 2026-05-08 07:39 | 25.38784 | 54.77017 | 14403 ft | 390 kts | 285° |
| 2026-05-08 07:39 | 25.39612 | 54.74128 | 14892 ft | 391 kts | 285° |
| 2026-05-08 07:40 | 25.40427 | 54.71276 | 15371 ft | 394 kts | 285° |
| 2026-05-08 07:40 | 25.41255 | 54.68376 | 15859 ft | 396 kts | 285° |
| 2026-05-08 07:40 | 25.42089 | 54.65449 | 16346 ft | 398 kts | 285° |
| 2026-05-08 07:40 | 25.42915 | 54.62551 | 16819 ft | 400 kts | 286° |
| 2026-05-08 07:41 | 25.43762 | 54.59615 | 17302 ft | 402 kts | 287° |
| 2026-05-08 07:41 | 25.44637 | 54.56672 | 17786 ft | 404 kts | 287° |
| 2026-05-08 07:41 | 25.45515 | 54.53716 | 18268 ft | 405 kts | 287° |
| 2026-05-08 07:41 | 25.46395 | 54.50747 | 18744 ft | 408 kts | 287° |
| 2026-05-08 07:42 | 25.47281 | 54.47754 | 19228 ft | 410 kts | 286° |
| 2026-05-08 07:42 | 25.48176 | 54.44727 | 19709 ft | 412 kts | 286° |
| 2026-05-08 07:42 | 25.49067 | 54.41708 | 20191 ft | 413 kts | 286° |
| 2026-05-08 07:42 | 25.49958 | 54.38685 | 20667 ft | 415 kts | 286° |
| 2026-05-08 07:43 | 25.50846 | 54.35672 | 21142 ft | 417 kts | 286° |
| 2026-05-08 07:43 | 25.51718 | 54.32709 | 21608 ft | 419 kts | 285° |
| 2026-05-08 07:43 | 25.52613 | 54.29665 | 22084 ft | 421 kts | 285° |
| 2026-05-08 07:43 | 25.53528 | 54.26551 | 22573 ft | 423 kts | 285° |
| 2026-05-08 07:44 | 25.54434 | 54.23464 | 23072 ft | 425 kts | 285° |
| 2026-05-08 07:44 | 25.55345 | 54.20360 | 23567 ft | 428 kts | 285° |
| 2026-05-08 07:44 | 25.56212 | 54.17405 | 24038 ft | 431 kts | 285° |
| 2026-05-08 07:44 | 25.57141 | 54.14239 | 24540 ft | 433 kts | 285° |
| 2026-05-08 07:45 | 25.58063 | 54.11093 | 25036 ft | 436 kts | 285° |
| 2026-05-08 07:45 | 25.59001 | 54.07887 | 25541 ft | 438 kts | 285° |
| 2026-05-08 07:45 | 25.59936 | 54.04663 | 26046 ft | 441 kts | 285° |
| 2026-05-08 07:45 | 25.60858 | 54.01431 | 26551 ft | 443 kts | 285° |
| 2026-05-08 07:46 | 25.61783 | 53.98183 | 27052 ft | 446 kts | 285° |
| 2026-05-08 07:46 | 25.62723 | 53.94882 | 27558 ft | 450 kts | 285° |
| 2026-05-08 07:46 | 25.63664 | 53.91575 | 28061 ft | 452 kts | 284° |
| 2026-05-08 07:46 | 25.64614 | 53.88233 | 28568 ft | 455 kts | 284° |
| 2026-05-08 07:47 | 25.65566 | 53.84881 | 29069 ft | 458 kts | 284° |
| 2026-05-08 07:47 | 25.66532 | 53.81479 | 29580 ft | 460 kts | 284° |
| 2026-05-08 07:47 | 25.67493 | 53.78090 | 30083 ft | 463 kts | 284° |
| 2026-05-08 07:47 | 25.68458 | 53.74685 | 30586 ft | 464 kts | 284° |
| 2026-05-08 07:48 | 25.69438 | 53.71223 | 31095 ft | 466 kts | 284° |
| 2026-05-08 07:48 | 25.70408 | 53.67776 | 31599 ft | 468 kts | 284° |
| 2026-05-08 07:48 | 25.71386 | 53.64297 | 32109 ft | 470 kts | 283° |
| 2026-05-08 07:48 | 25.72361 | 53.60825 | 32612 ft | 472 kts | 283° |
| 2026-05-08 07:49 | 25.73330 | 53.57370 | 33112 ft | 474 kts | 283° |
| 2026-05-08 07:49 | 25.74323 | 53.53827 | 33554 ft | 477 kts | 283° |
| 2026-05-08 07:49 | 25.75312 | 53.50293 | 33982 ft | 479 kts | 283° |
| 2026-05-08 07:49 | 25.76310 | 53.46738 | 34412 ft | 478 kts | 283° |
| 2026-05-08 07:50 | 25.77298 | 53.43223 | 34839 ft | 476 kts | 283° |
| 2026-05-08 07:50 | 25.78279 | 53.39729 | 35264 ft | 473 kts | 283° |
| 2026-05-08 07:50 | 25.79261 | 53.36224 | 35690 ft | 474 kts | 283° |
| 2026-05-08 07:50 | 25.80158 | 53.33017 | 35813 ft | 477 kts | 283° |
| 2026-05-08 07:51 | 25.81126 | 53.29553 | 35815 ft | 474 kts | 283° |
| 2026-05-08 07:51 | 25.83074 | 53.22580 | 35813 ft | 471 kts | 282° |
| 2026-05-08 07:52 | 25.85340 | 53.15706 | 35820 ft | 476 kts | 289° |
| 2026-05-08 07:52 | 25.88082 | 53.08981 | 35814 ft | 480 kts | 289° |
| 2026-05-08 07:53 | 25.90873 | 53.02127 | 35812 ft | 493 kts | 289° |
| 2026-05-08 07:53 | 25.93740 | 52.95073 | 35810 ft | 500 kts | 289° |
| 2026-05-08 07:54 | 25.96592 | 52.88045 | 35811 ft | 499 kts | 289° |
| 2026-05-08 07:54 | 25.99438 | 52.81019 | 35821 ft | 499 kts | 289° |
| 2026-05-08 07:55 | 26.02292 | 52.73963 | 35825 ft | 499 kts | 290° |
| 2026-05-08 07:55 | 26.05391 | 52.67050 | 35825 ft | 500 kts | 292° |
| 2026-05-08 07:56 | 26.08531 | 52.60130 | 35828 ft | 500 kts | 291° |
| 2026-05-08 07:56 | 26.11574 | 52.53389 | 35816 ft | 500 kts | 291° |
| 2026-05-08 07:57 | 26.14696 | 52.46482 | 35812 ft | 499 kts | 291° |
| 2026-05-08 07:57 | 26.17814 | 52.39571 | 35810 ft | 499 kts | 291° |
| 2026-05-08 07:58 | 26.20947 | 52.32609 | 35816 ft | 499 kts | 291° |
| 2026-05-08 07:58 | 26.24008 | 52.25675 | 35818 ft | 498 kts | 290° |
| 2026-05-08 07:59 | 26.27009 | 52.18724 | 35818 ft | 499 kts | 290° |
| 2026-05-08 07:59 | 26.30020 | 52.11749 | 35820 ft | 498 kts | 290° |
| 2026-05-08 08:00 | 26.33036 | 52.04758 | 35817 ft | 498 kts | 290° |
| 2026-05-08 08:00 | 26.36039 | 51.97804 | 35818 ft | 497 kts | 290° |
| 2026-05-08 08:01 | 26.38749 | 51.90761 | 35825 ft | 492 kts | 285° |
| 2026-05-08 08:01 | 26.41147 | 51.83609 | 35822 ft | 490 kts | 285° |
| 2026-05-08 08:02 | 26.43535 | 51.76475 | 35823 ft | 490 kts | 285° |
| 2026-05-08 08:02 | 26.45931 | 51.69312 | 35830 ft | 490 kts | 285° |
| 2026-05-08 08:03 | 26.48317 | 51.62168 | 35827 ft | 490 kts | 284° |
| 2026-05-08 08:03 | 26.50692 | 51.55035 | 35824 ft | 489 kts | 284° |
| 2026-05-08 08:04 | 26.53067 | 51.47887 | 35829 ft | 490 kts | 284° |
| 2026-05-08 08:04 | 26.55434 | 51.40751 | 35829 ft | 488 kts | 284° |
| 2026-05-08 08:05 | 26.57708 | 51.33885 | 35840 ft | 487 kts | 284° |
| 2026-05-08 08:05 | 26.60059 | 51.26778 | 35849 ft | 487 kts | 284° |
| 2026-05-08 08:06 | 26.62410 | 51.19679 | 35847 ft | 486 kts | 284° |
| 2026-05-08 08:06 | 26.64679 | 51.12816 | 35845 ft | 486 kts | 284° |
| 2026-05-08 08:07 | 26.67025 | 51.05705 | 35854 ft | 486 kts | 284° |
| 2026-05-08 08:07 | 26.69330 | 50.98676 | 35856 ft | 484 kts | 283° |
| 2026-05-08 08:08 | 26.71606 | 50.91561 | 35853 ft | 484 kts | 283° |
| 2026-05-08 08:08 | 26.73874 | 50.84457 | 35856 ft | 484 kts | 283° |
| 2026-05-08 08:09 | 26.76125 | 50.77398 | 35858 ft | 483 kts | 283° |
| 2026-05-08 08:09 | 26.78382 | 50.70310 | 35864 ft | 485 kts | 283° |
| 2026-05-08 08:10 | 26.81381 | 50.63473 | 35865 ft | 499 kts | 298° |
| 2026-05-08 08:10 | 26.85738 | 50.57326 | 35869 ft | 505 kts | 302° |
| 2026-05-08 08:11 | 26.90173 | 50.51259 | 35874 ft | 506 kts | 302° |
| 2026-05-08 08:11 | 26.94820 | 50.45247 | 35880 ft | 511 kts | 306° |
| 2026-05-08 08:12 | 26.99749 | 50.39481 | 35879 ft | 511 kts | 306° |
| 2026-05-08 08:12 | 27.04665 | 50.33688 | 35895 ft | 513 kts | 306° |
| 2026-05-08 08:13 | 27.09531 | 50.27866 | 35897 ft | 510 kts | 305° |
| 2026-05-08 08:13 | 27.14395 | 50.22001 | 35882 ft | 511 kts | 305° |
| 2026-05-08 08:14 | 27.19873 | 50.16814 | 35885 ft | 524 kts | 315° |
| 2026-05-08 08:14 | 27.25775 | 50.11953 | 35887 ft | 525 kts | 315° |
| 2026-05-08 08:15 | 27.31705 | 50.07066 | 35885 ft | 525 kts | 315° |
| 2026-05-08 08:15 | 27.37570 | 50.02196 | 35887 ft | 523 kts | 314° |
| 2026-05-08 08:16 | 27.43289 | 49.97165 | 35883 ft | 522 kts | 313° |
| 2026-05-08 08:16 | 27.49014 | 49.92109 | 35890 ft | 523 kts | 313° |
| 2026-05-08 08:17 | 27.54735 | 49.87058 | 35889 ft | 522 kts | 313° |
| 2026-05-08 08:17 | 27.60442 | 49.82018 | 35892 ft | 522 kts | 313° |
| 2026-05-08 08:18 | 27.66180 | 49.76945 | 35894 ft | 523 kts | 313° |
| 2026-05-08 08:18 | 27.71867 | 49.71912 | 35900 ft | 524 kts | 313° |
| 2026-05-08 08:19 | 27.77622 | 49.66815 | 35897 ft | 522 kts | 313° |
| 2026-05-08 08:19 | 27.83283 | 49.61771 | 35903 ft | 521 kts | 313° |
| 2026-05-08 08:20 | 27.89008 | 49.56654 | 35902 ft | 523 kts | 313° |
| 2026-05-08 08:20 | 27.94717 | 49.51547 | 35909 ft | 522 kts | 313° |
| 2026-05-08 08:21 | 28.00409 | 49.46449 | 35911 ft | 522 kts | 313° |
| 2026-05-08 08:21 | 28.06106 | 49.41308 | 35909 ft | 521 kts | 312° |
| 2026-05-08 08:22 | 28.11729 | 49.36172 | 35898 ft | 521 kts | 312° |
| 2026-05-08 08:22 | 28.17402 | 49.30986 | 35910 ft | 521 kts | 311° |
| 2026-05-08 08:23 | 28.23046 | 49.25820 | 35917 ft | 522 kts | 311° |
| 2026-05-08 08:23 | 28.28532 | 49.20795 | 35919 ft | 520 kts | 311° |
| 2026-05-08 08:24 | 28.34198 | 49.15597 | 35926 ft | 523 kts | 311° |
| 2026-05-08 08:24 | 28.39827 | 49.10428 | 35929 ft | 522 kts | 311° |
| 2026-05-08 08:25 | 28.45868 | 49.05631 | 35928 ft | 529 kts | 317° |
| 2026-05-08 08:25 | 28.52060 | 49.00971 | 35930 ft | 531 kts | 316° |
| 2026-05-08 08:26 | 28.58216 | 48.96295 | 35932 ft | 532 kts | 316° |
| 2026-05-08 08:26 | 28.64244 | 48.91689 | 35933 ft | 530 kts | 316° |
| 2026-05-08 08:27 | 28.70362 | 48.86993 | 35935 ft | 530 kts | 316° |
| 2026-05-08 08:27 | 28.76477 | 48.82287 | 35936 ft | 529 kts | 316° |
| 2026-05-08 08:28 | 28.82585 | 48.77583 | 35937 ft | 530 kts | 316° |
| 2026-05-08 08:28 | 28.88725 | 48.72884 | 35940 ft | 531 kts | 316° |
| 2026-05-08 08:29 | 28.94879 | 48.68167 | 35939 ft | 532 kts | 316° |
| 2026-05-08 08:29 | 29.01007 | 48.63464 | 35939 ft | 530 kts | 316° |
| 2026-05-08 08:30 | 29.07147 | 48.58744 | 35940 ft | 528 kts | 315° |
| 2026-05-08 08:30 | 29.16236 | 48.51740 | 35924 ft | 528 kts | 315° |
| 2026-05-08 08:31 | 29.22322 | 48.47040 | 35921 ft | 527 kts | 315° |
| 2026-05-08 08:31 | 29.28409 | 48.42332 | 35927 ft | 531 kts | 315° |
| 2026-05-08 08:32 | 29.34563 | 48.37569 | 35930 ft | 528 kts | 315° |
| 2026-05-08 08:32 | 29.40648 | 48.32850 | 35941 ft | 527 kts | 315° |
| 2026-05-08 08:33 | 29.46809 | 48.28254 | 35948 ft | 530 kts | 319° |
| 2026-05-08 08:33 | 29.53217 | 48.24107 | 35949 ft | 534 kts | 319° |